sensor_id;sensor_type;location;lat;lon;timestamp;P1;durP1;ratioP1;P2;durP2;ratioP2
3083;SDS011;1552;51.952;7.618;2022-08-23T00:01:46;4.88;;;2.90;;
3083;SDS011;1552;51.952;7.618;2022-08-23T00:04:14;5.72;;;2.90;;
3083;SDS011;1552;51.952;7.618;2022-08-23T00:06:41;5.68;;;2.90;;
3083;SDS011;1552;51.952;7.618;2022-08-23T00:09:07;4.75;;;2.70;;
3083;SDS011;1552;51.952;7.618;2022-08-23T00:11:35;5.50;;;3.00;;
3083;SDS011;1552;51.952;7.618;2022-08-23T00:14:05;4.22;;;2.72;;
3083;SDS011;1552;51.952;7.618;2022-08-23T00:16:32;7.70;;;3.33;;
3083;SDS011;1552;51.952;7.618;2022-08-23T00:19:00;5.30;;;2.97;;
3083;SDS011;1552;51.952;7.618;2022-08-23T00:21:27;3.17;;;2.70;;
3083;SDS011;1552;51.952;7.618;2022-08-23T00:23:54;5.15;;;2.90;;
3083;SDS011;1552;51.952;7.618;2022-08-23T00:26:20;3.88;;;2.80;;
3083;SDS011;1552;51.952;7.618;2022-08-23T00:28:47;6.47;;;2.83;;
3083;SDS011;1552;51.952;7.618;2022-08-23T00:31:13;8.88;;;3.15;;
3083;SDS011;1552;51.952;7.618;2022-08-23T00:33:40;5.05;;;3.20;;
3083;SDS011;1552;51.952;7.618;2022-08-23T00:36:08;4.93;;;3.08;;
3083;SDS011;1552;51.952;7.618;2022-08-23T00:38:34;4.35;;;2.75;;
3083;SDS011;1552;51.952;7.618;2022-08-23T00:41:01;3.85;;;2.92;;
3083;SDS011;1552;51.952;7.618;2022-08-23T00:43:28;5.78;;;3.10;;
3083;SDS011;1552;51.952;7.618;2022-08-23T00:46:15;7.80;;;3.70;;
3083;SDS011;1552;51.952;7.618;2022-08-23T00:49:06;5.80;;;3.40;;
3083;SDS011;1552;51.952;7.618;2022-08-23T00:51:37;5.25;;;3.00;;
3083;SDS011;1552;51.952;7.618;2022-08-23T00:54:06;4.20;;;2.70;;
3083;SDS011;1552;51.952;7.618;2022-08-23T00:56:33;5.18;;;3.30;;
3083;SDS011;1552;51.952;7.618;2022-08-23T00:59:00;6.22;;;2.80;;
3083;SDS011;1552;51.952;7.618;2022-08-23T01:01:27;4.25;;;3.42;;
3083;SDS011;1552;51.952;7.618;2022-08-23T01:03:54;5.80;;;3.50;;
3083;SDS011;1552;51.952;7.618;2022-08-23T01:06:23;4.93;;;3.30;;
3083;SDS011;1552;51.952;7.618;2022-08-23T01:08:54;4.32;;;3.20;;
3083;SDS011;1552;51.952;7.618;2022-08-23T01:11:23;5.90;;;3.55;;
3083;SDS011;1552;51.952;7.618;2022-08-23T01:13:52;4.72;;;3.30;;
3083;SDS011;1552;51.952;7.618;2022-08-23T01:16:20;5.90;;;3.55;;
3083;SDS011;1552;51.952;7.618;2022-08-23T01:18:48;6.13;;;3.03;;
3083;SDS011;1552;51.952;7.618;2022-08-23T01:21:16;5.88;;;3.80;;
3083;SDS011;1552;51.952;7.618;2022-08-23T01:23:46;5.43;;;3.17;;
3083;SDS011;1552;51.952;7.618;2022-08-23T01:26:14;9.98;;;3.40;;
3083;SDS011;1552;51.952;7.618;2022-08-23T01:28:41;3.83;;;3.30;;
3083;SDS011;1552;51.952;7.618;2022-08-23T01:31:10;4.85;;;3.35;;
3083;SDS011;1552;51.952;7.618;2022-08-23T01:33:37;4.90;;;3.40;;
3083;SDS011;1552;51.952;7.618;2022-08-23T01:36:04;5.45;;;3.45;;
3083;SDS011;1552;51.952;7.618;2022-08-23T01:38:31;3.92;;;3.20;;
3083;SDS011;1552;51.952;7.618;2022-08-23T01:40:59;5.78;;;3.22;;
3083;SDS011;1552;51.952;7.618;2022-08-23T01:43:25;5.28;;;3.55;;
3083;SDS011;1552;51.952;7.618;2022-08-23T01:45:52;4.03;;;3.20;;
3083;SDS011;1552;51.952;7.618;2022-08-23T01:48:19;4.45;;;3.25;;
3083;SDS011;1552;51.952;7.618;2022-08-23T01:50:46;6.82;;;3.75;;
3083;SDS011;1552;51.952;7.618;2022-08-23T01:53:12;5.10;;;3.92;;
3083;SDS011;1552;51.952;7.618;2022-08-23T01:55:39;6.32;;;3.78;;
3083;SDS011;1552;51.952;7.618;2022-08-23T01:58:08;5.82;;;4.18;;
3083;SDS011;1552;51.952;7.618;2022-08-23T02:00:35;7.57;;;3.25;;
3083;SDS011;1552;51.952;7.618;2022-08-23T02:03:04;4.88;;;3.33;;
3083;SDS011;1552;51.952;7.618;2022-08-23T02:05:31;4.03;;;2.95;;
3083;SDS011;1552;51.952;7.618;2022-08-23T02:07:58;3.88;;;3.05;;
3083;SDS011;1552;51.952;7.618;2022-08-23T02:10:45;4.50;;;3.05;;
3083;SDS011;1552;51.952;7.618;2022-08-23T02:13:12;6.20;;;3.50;;
3083;SDS011;1552;51.952;7.618;2022-08-23T02:15:40;4.93;;;3.25;;
3083;SDS011;1552;51.952;7.618;2022-08-23T02:18:07;4.53;;;2.78;;
3083;SDS011;1552;51.952;7.618;2022-08-23T02:20:34;3.83;;;2.90;;
3083;SDS011;1552;51.952;7.618;2022-08-23T02:23:02;6.28;;;2.92;;
3083;SDS011;1552;51.952;7.618;2022-08-23T02:25:28;5.68;;;3.70;;
3083;SDS011;1552;51.952;7.618;2022-08-23T02:27:55;4.68;;;3.40;;
3083;SDS011;1552;51.952;7.618;2022-08-23T02:30:22;4.97;;;3.53;;
3083;SDS011;1552;51.952;7.618;2022-08-23T02:32:49;4.63;;;3.10;;
3083;SDS011;1552;51.952;7.618;2022-08-23T02:35:16;4.20;;;3.45;;
3083;SDS011;1552;51.952;7.618;2022-08-23T02:37:42;5.15;;;3.25;;
3083;SDS011;1552;51.952;7.618;2022-08-23T02:40:10;6.03;;;3.45;;
3083;SDS011;1552;51.952;7.618;2022-08-23T02:42:36;6.55;;;3.58;;
3083;SDS011;1552;51.952;7.618;2022-08-23T02:45:03;3.78;;;3.08;;
3083;SDS011;1552;51.952;7.618;2022-08-23T02:47:31;5.22;;;3.50;;
3083;SDS011;1552;51.952;7.618;2022-08-23T02:49:57;3.90;;;2.95;;
3083;SDS011;1552;51.952;7.618;2022-08-23T02:52:23;4.05;;;3.28;;
3083;SDS011;1552;51.952;7.618;2022-08-23T02:54:49;5.97;;;3.28;;
3083;SDS011;1552;51.952;7.618;2022-08-23T02:57:16;5.32;;;3.38;;
3083;SDS011;1552;51.952;7.618;2022-08-23T02:59:42;7.07;;;3.13;;
3083;SDS011;1552;51.952;7.618;2022-08-23T03:02:08;5.30;;;3.30;;
3083;SDS011;1552;51.952;7.618;2022-08-23T03:04:36;5.68;;;3.33;;
3083;SDS011;1552;51.952;7.618;2022-08-23T03:07:03;4.70;;;3.10;;
3083;SDS011;1552;51.952;7.618;2022-08-23T03:09:30;4.60;;;3.00;;
3083;SDS011;1552;51.952;7.618;2022-08-23T03:11:57;4.63;;;3.50;;
3083;SDS011;1552;51.952;7.618;2022-08-23T03:14:23;5.88;;;3.15;;
3083;SDS011;1552;51.952;7.618;2022-08-23T03:16:51;7.05;;;3.85;;
3083;SDS011;1552;51.952;7.618;2022-08-23T03:19:18;4.50;;;2.95;;
3083;SDS011;1552;51.952;7.618;2022-08-23T03:21:47;3.42;;;3.13;;
3083;SDS011;1552;51.952;7.618;2022-08-23T03:24:13;3.00;;;2.70;;
3083;SDS011;1552;51.952;7.618;2022-08-23T03:26:40;5.30;;;3.08;;
3083;SDS011;1552;51.952;7.618;2022-08-23T03:29:06;5.60;;;3.30;;
3083;SDS011;1552;51.952;7.618;2022-08-23T03:31:33;4.63;;;3.22;;
3083;SDS011;1552;51.952;7.618;2022-08-23T03:34:00;6.25;;;4.15;;
3083;SDS011;1552;51.952;7.618;2022-08-23T03:36:26;5.70;;;3.50;;
3083;SDS011;1552;51.952;7.618;2022-08-23T03:38:59;6.72;;;3.30;;
3083;SDS011;1552;51.952;7.618;2022-08-23T03:41:26;4.68;;;2.97;;
3083;SDS011;1552;51.952;7.618;2022-08-23T03:43:52;7.57;;;3.65;;
3083;SDS011;1552;51.952;7.618;2022-08-23T03:46:18;7.03;;;3.42;;
3083;SDS011;1552;51.952;7.618;2022-08-23T03:48:48;5.72;;;3.38;;
3083;SDS011;1552;51.952;7.618;2022-08-23T03:51:15;4.65;;;3.67;;
3083;SDS011;1552;51.952;7.618;2022-08-23T03:53:42;4.38;;;3.83;;
3083;SDS011;1552;51.952;7.618;2022-08-23T03:56:10;6.93;;;3.50;;
3083;SDS011;1552;51.952;7.618;2022-08-23T03:58:37;5.32;;;3.40;;
3083;SDS011;1552;51.952;7.618;2022-08-23T04:01:04;7.40;;;3.55;;
3083;SDS011;1552;51.952;7.618;2022-08-23T04:03:31;7.68;;;3.80;;
3083;SDS011;1552;51.952;7.618;2022-08-23T04:05:57;6.82;;;3.75;;
3083;SDS011;1552;51.952;7.618;2022-08-23T04:08:23;6.40;;;3.25;;
3083;SDS011;1552;51.952;7.618;2022-08-23T04:10:49;5.65;;;3.55;;
3083;SDS011;1552;51.952;7.618;2022-08-23T04:13:17;7.63;;;3.50;;
3083;SDS011;1552;51.952;7.618;2022-08-23T04:15:44;4.70;;;3.50;;
3083;SDS011;1552;51.952;7.618;2022-08-23T04:18:10;4.15;;;3.38;;
3083;SDS011;1552;51.952;7.618;2022-08-23T04:20:38;6.93;;;3.60;;
3083;SDS011;1552;51.952;7.618;2022-08-23T04:23:04;7.95;;;3.53;;
3083;SDS011;1552;51.952;7.618;2022-08-23T04:25:30;6.45;;;3.45;;
3083;SDS011;1552;51.952;7.618;2022-08-23T04:27:57;6.97;;;3.20;;
3083;SDS011;1552;51.952;7.618;2022-08-23T04:30:25;6.07;;;3.60;;
3083;SDS011;1552;51.952;7.618;2022-08-23T04:32:51;4.00;;;2.95;;
3083;SDS011;1552;51.952;7.618;2022-08-23T04:35:17;6.70;;;3.58;;
3083;SDS011;1552;51.952;7.618;2022-08-23T04:37:44;6.00;;;3.40;;
3083;SDS011;1552;51.952;7.618;2022-08-23T04:40:10;6.25;;;3.72;;
3083;SDS011;1552;51.952;7.618;2022-08-23T04:42:54;6.25;;;3.85;;
3083;SDS011;1552;51.952;7.618;2022-08-23T04:45:21;7.30;;;3.97;;
3083;SDS011;1552;51.952;7.618;2022-08-23T04:47:49;4.63;;;3.75;;
3083;SDS011;1552;51.952;7.618;2022-08-23T04:50:15;4.72;;;3.55;;
3083;SDS011;1552;51.952;7.618;2022-08-23T04:52:41;4.82;;;3.72;;
3083;SDS011;1552;51.952;7.618;2022-08-23T04:55:09;5.90;;;3.45;;
3083;SDS011;1552;51.952;7.618;2022-08-23T04:57:36;4.35;;;3.55;;
3083;SDS011;1552;51.952;7.618;2022-08-23T05:00:03;7.00;;;3.70;;
3083;SDS011;1552;51.952;7.618;2022-08-23T05:02:31;4.18;;;3.55;;
3083;SDS011;1552;51.952;7.618;2022-08-23T05:04:59;8.27;;;3.83;;
3083;SDS011;1552;51.952;7.618;2022-08-23T05:07:25;6.32;;;3.72;;
3083;SDS011;1552;51.952;7.618;2022-08-23T05:09:52;6.55;;;3.80;;
3083;SDS011;1552;51.952;7.618;2022-08-23T05:12:18;6.63;;;3.65;;
3083;SDS011;1552;51.952;7.618;2022-08-23T05:14:45;5.38;;;3.40;;
3083;SDS011;1552;51.952;7.618;2022-08-23T05:17:12;5.90;;;3.90;;
3083;SDS011;1552;51.952;7.618;2022-08-23T05:19:38;10.00;;;4.00;;
3083;SDS011;1552;51.952;7.618;2022-08-23T05:22:06;6.05;;;3.53;;
3083;SDS011;1552;51.952;7.618;2022-08-23T05:24:32;7.20;;;4.15;;
3083;SDS011;1552;51.952;7.618;2022-08-23T05:26:58;9.55;;;3.47;;
3083;SDS011;1552;51.952;7.618;2022-08-23T05:29:25;11.75;;;4.03;;
3083;SDS011;1552;51.952;7.618;2022-08-23T05:31:51;6.60;;;3.58;;
3083;SDS011;1552;51.952;7.618;2022-08-23T05:34:18;8.20;;;3.92;;
3083;SDS011;1552;51.952;7.618;2022-08-23T05:36:44;7.95;;;3.90;;
3083;SDS011;1552;51.952;7.618;2022-08-23T05:39:12;6.95;;;3.53;;
3083;SDS011;1552;51.952;7.618;2022-08-23T05:41:40;6.68;;;3.55;;
3083;SDS011;1552;51.952;7.618;2022-08-23T05:44:06;6.32;;;3.45;;
3083;SDS011;1552;51.952;7.618;2022-08-23T05:46:34;8.07;;;3.60;;
3083;SDS011;1552;51.952;7.618;2022-08-23T05:49:00;5.55;;;3.50;;
3083;SDS011;1552;51.952;7.618;2022-08-23T05:51:29;7.18;;;3.15;;
3083;SDS011;1552;51.952;7.618;2022-08-23T05:53:57;6.35;;;3.33;;
3083;SDS011;1552;51.952;7.618;2022-08-23T05:56:25;8.10;;;4.32;;
3083;SDS011;1552;51.952;7.618;2022-08-23T05:58:54;9.23;;;3.65;;
3083;SDS011;1552;51.952;7.618;2022-08-23T06:01:22;8.52;;;4.18;;
3083;SDS011;1552;51.952;7.618;2022-08-23T06:03:54;4.72;;;3.42;;
3083;SDS011;1552;51.952;7.618;2022-08-23T06:06:21;9.35;;;3.83;;
3083;SDS011;1552;51.952;7.618;2022-08-23T06:08:48;5.78;;;3.30;;
3083;SDS011;1552;51.952;7.618;2022-08-23T06:11:17;10.85;;;3.78;;
3083;SDS011;1552;51.952;7.618;2022-08-23T06:13:49;8.10;;;3.70;;
3083;SDS011;1552;51.952;7.618;2022-08-23T06:16:16;8.50;;;3.88;;
3083;SDS011;1552;51.952;7.618;2022-08-23T06:18:43;7.72;;;3.58;;
3083;SDS011;1552;51.952;7.618;2022-08-23T06:21:11;8.32;;;3.55;;
3083;SDS011;1552;51.952;7.618;2022-08-23T06:23:38;7.43;;;4.00;;
3083;SDS011;1552;51.952;7.618;2022-08-23T06:26:09;9.38;;;3.92;;
3083;SDS011;1552;51.952;7.618;2022-08-23T06:28:36;9.25;;;3.90;;
3083;SDS011;1552;51.952;7.618;2022-08-23T06:31:04;9.05;;;4.10;;
3083;SDS011;1552;51.952;7.618;2022-08-23T06:33:30;7.88;;;3.05;;
3083;SDS011;1552;51.952;7.618;2022-08-23T06:36:00;9.18;;;3.78;;
3083;SDS011;1552;51.952;7.618;2022-08-23T06:38:27;8.95;;;4.63;;
3083;SDS011;1552;51.952;7.618;2022-08-23T06:40:57;8.07;;;3.95;;
3083;SDS011;1552;51.952;7.618;2022-08-23T06:43:24;12.15;;;3.63;;
3083;SDS011;1552;51.952;7.618;2022-08-23T06:45:50;14.52;;;3.80;;
3083;SDS011;1552;51.952;7.618;2022-08-23T06:48:18;7.65;;;3.70;;
3083;SDS011;1552;51.952;7.618;2022-08-23T06:50:45;14.48;;;4.80;;
3083;SDS011;1552;51.952;7.618;2022-08-23T06:53:11;12.68;;;3.80;;
3083;SDS011;1552;51.952;7.618;2022-08-23T06:55:37;10.43;;;3.90;;
3083;SDS011;1552;51.952;7.618;2022-08-23T06:58:04;7.60;;;4.50;;
3083;SDS011;1552;51.952;7.618;2022-08-23T07:00:30;10.35;;;4.10;;
3083;SDS011;1552;51.952;7.618;2022-08-23T07:02:56;6.97;;;3.35;;
3083;SDS011;1552;51.952;7.618;2022-08-23T07:05:25;6.60;;;3.17;;
3083;SDS011;1552;51.952;7.618;2022-08-23T07:07:51;5.72;;;3.20;;
3083;SDS011;1552;51.952;7.618;2022-08-23T07:10:18;8.93;;;4.28;;
3083;SDS011;1552;51.952;7.618;2022-08-23T07:12:45;13.35;;;3.88;;
3083;SDS011;1552;51.952;7.618;2022-08-23T07:15:13;8.10;;;3.10;;
3083;SDS011;1552;51.952;7.618;2022-08-23T07:17:40;7.05;;;3.30;;
3083;SDS011;1552;51.952;7.618;2022-08-23T07:20:06;9.57;;;3.50;;
3083;SDS011;1552;51.952;7.618;2022-08-23T07:22:34;10.18;;;3.42;;
3083;SDS011;1552;51.952;7.618;2022-08-23T07:25:01;7.43;;;3.15;;
3083;SDS011;1552;51.952;7.618;2022-08-23T07:27:28;6.65;;;3.28;;
3083;SDS011;1552;51.952;7.618;2022-08-23T07:29:54;8.18;;;3.42;;
3083;SDS011;1552;51.952;7.618;2022-08-23T07:32:20;6.82;;;3.42;;
3083;SDS011;1552;51.952;7.618;2022-08-23T07:34:47;5.15;;;2.92;;
3083;SDS011;1552;51.952;7.618;2022-08-23T07:37:13;7.05;;;3.53;;
3083;SDS011;1552;51.952;7.618;2022-08-23T07:39:42;10.10;;;3.10;;
3083;SDS011;1552;51.952;7.618;2022-08-23T07:42:09;5.45;;;2.85;;
3083;SDS011;1552;51.952;7.618;2022-08-23T07:44:36;6.43;;;2.65;;
3083;SDS011;1552;51.952;7.618;2022-08-23T07:47:02;7.00;;;3.30;;
3083;SDS011;1552;51.952;7.618;2022-08-23T07:49:29;4.13;;;2.78;;
3083;SDS011;1552;51.952;7.618;2022-08-23T07:51:56;8.15;;;3.35;;
3083;SDS011;1552;51.952;7.618;2022-08-23T07:54:23;3.83;;;2.80;;
3083;SDS011;1552;51.952;7.618;2022-08-23T07:56:53;5.07;;;2.70;;
3083;SDS011;1552;51.952;7.618;2022-08-23T07:59:19;7.38;;;3.08;;
3083;SDS011;1552;51.952;7.618;2022-08-23T08:01:45;6.93;;;2.58;;
3083;SDS011;1552;51.952;7.618;2022-08-23T08:04:12;5.20;;;2.80;;
3083;SDS011;1552;51.952;7.618;2022-08-23T08:06:40;5.40;;;2.80;;
3083;SDS011;1552;51.952;7.618;2022-08-23T08:09:07;4.90;;;3.15;;
3083;SDS011;1552;51.952;7.618;2022-08-23T08:11:33;3.95;;;2.75;;
3083;SDS011;1552;51.952;7.618;2022-08-23T08:14:02;5.20;;;2.63;;
3083;SDS011;1552;51.952;7.618;2022-08-23T08:16:29;5.28;;;2.97;;
3083;SDS011;1552;51.952;7.618;2022-08-23T08:18:56;5.60;;;2.50;;
3083;SDS011;1552;51.952;7.618;2022-08-23T08:21:23;6.07;;;2.20;;
3083;SDS011;1552;51.952;7.618;2022-08-23T08:23:50;4.10;;;2.50;;
3083;SDS011;1552;51.952;7.618;2022-08-23T08:26:17;6.05;;;3.30;;
3083;SDS011;1552;51.952;7.618;2022-08-23T08:28:44;3.70;;;2.38;;
3083;SDS011;1552;51.952;7.618;2022-08-23T08:31:12;3.70;;;2.00;;
3083;SDS011;1552;51.952;7.618;2022-08-23T08:33:38;5.47;;;2.97;;
3083;SDS011;1552;51.952;7.618;2022-08-23T08:36:06;5.30;;;2.55;;
3083;SDS011;1552;51.952;7.618;2022-08-23T08:38:32;5.82;;;3.08;;
3083;SDS011;1552;51.952;7.618;2022-08-23T08:41:00;39.83;;;8.02;;
3083;SDS011;1552;51.952;7.618;2022-08-23T08:43:33;8.77;;;3.30;;
3083;SDS011;1552;51.952;7.618;2022-08-23T08:46:03;6.85;;;2.88;;
3083;SDS011;1552;51.952;7.618;2022-08-23T08:48:35;4.18;;;2.63;;
3083;SDS011;1552;51.952;7.618;2022-08-23T08:51:06;4.70;;;2.40;;
3083;SDS011;1552;51.952;7.618;2022-08-23T08:53:38;3.80;;;2.42;;
3083;SDS011;1552;51.952;7.618;2022-08-23T08:56:06;6.47;;;2.70;;
3083;SDS011;1552;51.952;7.618;2022-08-23T08:58:42;4.63;;;2.78;;
3083;SDS011;1552;51.952;7.618;2022-08-23T09:01:10;8.13;;;3.00;;
3083;SDS011;1552;51.952;7.618;2022-08-23T09:03:38;5.45;;;3.30;;
3083;SDS011;1552;51.952;7.618;2022-08-23T09:06:08;6.50;;;2.90;;
3083;SDS011;1552;51.952;7.618;2022-08-23T09:08:43;4.95;;;2.55;;
3083;SDS011;1552;51.952;7.618;2022-08-23T09:11:14;8.52;;;3.00;;
3083;SDS011;1552;51.952;7.618;2022-08-23T09:16:31;2.80;;;2.10;;
3083;SDS011;1552;51.952;7.618;2022-08-23T09:19:01;4.70;;;2.47;;
3083;SDS011;1552;51.952;7.618;2022-08-23T09:21:29;4.55;;;2.80;;
3083;SDS011;1552;51.952;7.618;2022-08-23T09:23:55;11.00;;;3.20;;
3083;SDS011;1552;51.952;7.618;2022-08-23T09:26:23;5.55;;;2.33;;
3083;SDS011;1552;51.952;7.618;2022-08-23T09:28:51;4.40;;;2.67;;
3083;SDS011;1552;51.952;7.618;2022-08-23T09:34:00;6.47;;;2.78;;
3083;SDS011;1552;51.952;7.618;2022-08-23T09:36:27;4.13;;;2.88;;
3083;SDS011;1552;51.952;7.618;2022-08-23T09:38:58;5.20;;;2.67;;
3083;SDS011;1552;51.952;7.618;2022-08-23T09:41:26;6.32;;;2.40;;
3083;SDS011;1552;51.952;7.618;2022-08-23T09:43:52;2.75;;;2.03;;
3083;SDS011;1552;51.952;7.618;2022-08-23T09:46:23;4.82;;;2.78;;
3083;SDS011;1552;51.952;7.618;2022-08-23T09:48:50;5.35;;;2.80;;
3083;SDS011;1552;51.952;7.618;2022-08-23T09:51:23;7.43;;;3.03;;
3083;SDS011;1552;51.952;7.618;2022-08-23T09:53:51;7.60;;;2.80;;
3083;SDS011;1552;51.952;7.618;2022-08-23T09:56:27;4.18;;;2.80;;
3083;SDS011;1552;51.952;7.618;2022-08-23T09:58:53;8.63;;;3.03;;
3083;SDS011;1552;51.952;7.618;2022-08-23T10:01:21;4.40;;;2.88;;
3083;SDS011;1552;51.952;7.618;2022-08-23T10:04:05;8.23;;;2.97;;
3083;SDS011;1552;51.952;7.618;2022-08-23T10:06:33;3.72;;;2.38;;
3083;SDS011;1552;51.952;7.618;2022-08-23T10:09:06;7.72;;;2.90;;
3083;SDS011;1552;51.952;7.618;2022-08-23T10:11:34;7.32;;;2.70;;
3083;SDS011;1552;51.952;7.618;2022-08-23T10:14:02;5.57;;;2.63;;
3083;SDS011;1552;51.952;7.618;2022-08-23T10:16:32;5.53;;;2.63;;
3083;SDS011;1552;51.952;7.618;2022-08-23T10:19:02;5.10;;;2.53;;
3083;SDS011;1552;51.952;7.618;2022-08-23T10:21:34;4.35;;;2.75;;
3083;SDS011;1552;51.952;7.618;2022-08-23T10:26:50;5.07;;;2.80;;
3083;SDS011;1552;51.952;7.618;2022-08-23T10:29:20;4.25;;;2.88;;
3083;SDS011;1552;51.952;7.618;2022-08-23T10:32:02;7.15;;;3.10;;
3083;SDS011;1552;51.952;7.618;2022-08-23T10:34:34;6.75;;;2.58;;
3083;SDS011;1552;51.952;7.618;2022-08-23T10:37:09;5.18;;;2.70;;
3083;SDS011;1552;51.952;7.618;2022-08-23T10:39:42;6.20;;;2.55;;
3083;SDS011;1552;51.952;7.618;2022-08-23T10:42:14;6.57;;;3.33;;
3083;SDS011;1552;51.952;7.618;2022-08-23T10:44:45;3.58;;;2.55;;
3083;SDS011;1552;51.952;7.618;2022-08-23T10:47:15;6.32;;;2.70;;
3083;SDS011;1552;51.952;7.618;2022-08-23T10:49:44;5.03;;;2.50;;
3083;SDS011;1552;51.952;7.618;2022-08-23T10:52:14;5.95;;;2.60;;
3083;SDS011;1552;51.952;7.618;2022-08-23T10:54:42;3.63;;;2.58;;
3083;SDS011;1552;51.952;7.618;2022-08-23T10:57:16;5.72;;;2.80;;
3083;SDS011;1552;51.952;7.618;2022-08-23T10:59:44;6.03;;;2.80;;
3083;SDS011;1552;51.952;7.618;2022-08-23T11:02:15;5.28;;;2.55;;
3083;SDS011;1552;51.952;7.618;2022-08-23T11:04:46;6.22;;;3.08;;
3083;SDS011;1552;51.952;7.618;2022-08-23T11:07:15;3.80;;;2.85;;
3083;SDS011;1552;51.952;7.618;2022-08-23T11:09:52;4.43;;;2.83;;
3083;SDS011;1552;51.952;7.618;2022-08-23T11:12:25;5.25;;;3.17;;
3083;SDS011;1552;51.952;7.618;2022-08-23T11:15:03;3.67;;;2.53;;
3083;SDS011;1552;51.952;7.618;2022-08-23T11:17:36;4.45;;;2.80;;
3083;SDS011;1552;51.952;7.618;2022-08-23T11:20:06;7.22;;;3.05;;
3083;SDS011;1552;51.952;7.618;2022-08-23T11:23:09;5.35;;;3.05;;
3083;SDS011;1552;51.952;7.618;2022-08-23T11:30:46;6.30;;;3.00;;
3083;SDS011;1552;51.952;7.618;2022-08-23T11:33:17;8.00;;;2.88;;
3083;SDS011;1552;51.952;7.618;2022-08-23T11:35:46;5.80;;;2.92;;
3083;SDS011;1552;51.952;7.618;2022-08-23T11:38:13;4.50;;;2.78;;
3083;SDS011;1552;51.952;7.618;2022-08-23T11:43:23;4.35;;;2.38;;
3083;SDS011;1552;51.952;7.618;2022-08-23T11:45:52;5.00;;;2.80;;
3083;SDS011;1552;51.952;7.618;2022-08-23T11:48:20;6.90;;;2.83;;
3083;SDS011;1552;51.952;7.618;2022-08-23T11:50:55;6.22;;;2.58;;
3083;SDS011;1552;51.952;7.618;2022-08-23T11:53:29;4.30;;;2.30;;
3083;SDS011;1552;51.952;7.618;2022-08-23T11:56:08;5.70;;;2.97;;
3083;SDS011;1552;51.952;7.618;2022-08-23T11:58:43;9.00;;;2.55;;
3083;SDS011;1552;51.952;7.618;2022-08-23T12:01:13;5.10;;;3.00;;
3083;SDS011;1552;51.952;7.618;2022-08-23T12:03:50;4.07;;;2.80;;
3083;SDS011;1552;51.952;7.618;2022-08-23T12:06:34;5.00;;;2.80;;
3083;SDS011;1552;51.952;7.618;2022-08-23T12:09:03;5.30;;;2.65;;
3083;SDS011;1552;51.952;7.618;2022-08-23T12:16:56;8.73;;;2.70;;
3083;SDS011;1552;51.952;7.618;2022-08-23T12:19:27;6.53;;;3.03;;
3083;SDS011;1552;51.952;7.618;2022-08-23T12:21:55;5.68;;;2.95;;
3083;SDS011;1552;51.952;7.618;2022-08-23T12:24:23;4.22;;;2.60;;
3083;SDS011;1552;51.952;7.618;2022-08-23T12:26:58;3.95;;;2.65;;
3083;SDS011;1552;51.952;7.618;2022-08-23T12:29:30;5.65;;;3.05;;
3083;SDS011;1552;51.952;7.618;2022-08-23T12:32:02;5.20;;;2.40;;
3083;SDS011;1552;51.952;7.618;2022-08-23T12:34:33;5.65;;;2.42;;
3083;SDS011;1552;51.952;7.618;2022-08-23T12:37:04;6.75;;;2.95;;
3083;SDS011;1552;51.952;7.618;2022-08-23T12:39:36;4.63;;;2.53;;
3083;SDS011;1552;51.952;7.618;2022-08-23T12:42:04;4.95;;;3.03;;
3083;SDS011;1552;51.952;7.618;2022-08-23T12:44:31;4.93;;;2.33;;
3083;SDS011;1552;51.952;7.618;2022-08-23T12:47:08;3.10;;;2.30;;
3083;SDS011;1552;51.952;7.618;2022-08-23T12:49:35;8.68;;;2.83;;
3083;SDS011;1552;51.952;7.618;2022-08-23T12:52:05;6.15;;;2.20;;
3083;SDS011;1552;51.952;7.618;2022-08-23T12:54:33;4.03;;;2.60;;
3083;SDS011;1552;51.952;7.618;2022-08-23T12:57:00;4.35;;;2.95;;
3083;SDS011;1552;51.952;7.618;2022-08-23T12:59:35;3.55;;;2.70;;
3083;SDS011;1552;51.952;7.618;2022-08-23T13:02:02;5.00;;;2.63;;
3083;SDS011;1552;51.952;7.618;2022-08-23T13:04:31;5.43;;;2.63;;
3083;SDS011;1552;51.952;7.618;2022-08-23T13:06:59;5.07;;;2.90;;
3083;SDS011;1552;51.952;7.618;2022-08-23T13:09:28;4.28;;;2.22;;
3083;SDS011;1552;51.952;7.618;2022-08-23T13:11:55;4.90;;;2.20;;
3083;SDS011;1552;51.952;7.618;2022-08-23T13:14:22;6.30;;;2.60;;
3083;SDS011;1552;51.952;7.618;2022-08-23T13:16:49;2.45;;;2.00;;
3083;SDS011;1552;51.952;7.618;2022-08-23T13:19:16;5.47;;;2.03;;
3083;SDS011;1552;51.952;7.618;2022-08-23T13:21:44;3.78;;;2.17;;
3083;SDS011;1552;51.952;7.618;2022-08-23T13:24:26;4.40;;;2.45;;
3083;SDS011;1552;51.952;7.618;2022-08-23T13:26:53;4.00;;;2.30;;
3083;SDS011;1552;51.952;7.618;2022-08-23T13:29:38;3.88;;;2.50;;
3083;SDS011;1552;51.952;7.618;2022-08-23T13:32:22;3.60;;;2.15;;
3083;SDS011;1552;51.952;7.618;2022-08-23T13:34:49;2.42;;;2.00;;
3083;SDS011;1552;51.952;7.618;2022-08-23T13:37:22;5.20;;;2.60;;
3083;SDS011;1552;51.952;7.618;2022-08-23T13:39:51;5.40;;;2.70;;
3083;SDS011;1552;51.952;7.618;2022-08-23T13:42:28;5.85;;;2.40;;
3083;SDS011;1552;51.952;7.618;2022-08-23T13:44:56;7.88;;;2.70;;
3083;SDS011;1552;51.952;7.618;2022-08-23T13:47:25;4.35;;;2.40;;
3083;SDS011;1552;51.952;7.618;2022-08-23T13:49:53;4.70;;;2.40;;
3083;SDS011;1552;51.952;7.618;2022-08-23T13:52:20;4.97;;;2.50;;
3083;SDS011;1552;51.952;7.618;2022-08-23T13:54:47;5.30;;;2.55;;
3083;SDS011;1552;51.952;7.618;2022-08-23T13:57:15;3.45;;;2.05;;
3083;SDS011;1552;51.952;7.618;2022-08-23T13:59:45;5.80;;;2.38;;
3083;SDS011;1552;51.952;7.618;2022-08-23T14:02:13;3.53;;;2.40;;
3083;SDS011;1552;51.952;7.618;2022-08-23T14:04:41;4.10;;;2.72;;
3083;SDS011;1552;51.952;7.618;2022-08-23T14:07:08;5.05;;;2.40;;
3083;SDS011;1552;51.952;7.618;2022-08-23T14:09:36;6.80;;;2.70;;
3083;SDS011;1552;51.952;7.618;2022-08-23T14:12:04;3.05;;;2.30;;
3083;SDS011;1552;51.952;7.618;2022-08-23T14:14:31;4.90;;;2.28;;
3083;SDS011;1552;51.952;7.618;2022-08-23T14:16:58;3.50;;;2.45;;
3083;SDS011;1552;51.952;7.618;2022-08-23T14:19:25;5.95;;;2.90;;
3083;SDS011;1552;51.952;7.618;2022-08-23T14:21:53;7.53;;;2.70;;
3083;SDS011;1552;51.952;7.618;2022-08-23T14:24:19;4.75;;;2.67;;
3083;SDS011;1552;51.952;7.618;2022-08-23T14:26:47;4.50;;;2.67;;
3083;SDS011;1552;51.952;7.618;2022-08-23T14:29:13;5.78;;;2.63;;
3083;SDS011;1552;51.952;7.618;2022-08-23T14:31:39;5.18;;;2.22;;
3083;SDS011;1552;51.952;7.618;2022-08-23T14:34:06;4.50;;;2.65;;
3083;SDS011;1552;51.952;7.618;2022-08-23T14:36:32;4.75;;;2.60;;
3083;SDS011;1552;51.952;7.618;2022-08-23T14:38:58;5.07;;;2.40;;
3083;SDS011;1552;51.952;7.618;2022-08-23T14:41:25;2.85;;;2.55;;
3083;SDS011;1552;51.952;7.618;2022-08-23T14:43:53;6.57;;;2.72;;
3083;SDS011;1552;51.952;7.618;2022-08-23T14:46:20;6.75;;;2.10;;
3083;SDS011;1552;51.952;7.618;2022-08-23T14:48:47;3.38;;;2.67;;
3083;SDS011;1552;51.952;7.618;2022-08-23T14:51:22;5.97;;;2.50;;
3083;SDS011;1552;51.952;7.618;2022-08-23T14:53:49;4.07;;;2.33;;
3083;SDS011;1552;51.952;7.618;2022-08-23T14:56:15;3.60;;;2.60;;
3083;SDS011;1552;51.952;7.618;2022-08-23T14:58:41;3.80;;;2.50;;
3083;SDS011;1552;51.952;7.618;2022-08-23T15:01:10;3.83;;;2.50;;
3083;SDS011;1552;51.952;7.618;2022-08-23T15:03:36;4.22;;;2.40;;
3083;SDS011;1552;51.952;7.618;2022-08-23T15:06:05;6.20;;;2.60;;
3083;SDS011;1552;51.952;7.618;2022-08-23T15:08:32;6.75;;;2.63;;
3083;SDS011;1552;51.952;7.618;2022-08-23T15:10:58;5.20;;;2.40;;
3083;SDS011;1552;51.952;7.618;2022-08-23T15:13:25;6.05;;;2.65;;
3083;SDS011;1552;51.952;7.618;2022-08-23T15:15:51;4.70;;;2.35;;
3083;SDS011;1552;51.952;7.618;2022-08-23T15:18:19;4.05;;;2.42;;
3083;SDS011;1552;51.952;7.618;2022-08-23T15:20:45;3.30;;;2.20;;
3083;SDS011;1552;51.952;7.618;2022-08-23T15:23:12;4.60;;;2.35;;
3083;SDS011;1552;51.952;7.618;2022-08-23T15:25:39;4.03;;;2.70;;
3083;SDS011;1552;51.952;7.618;2022-08-23T15:28:06;7.95;;;3.00;;
3083;SDS011;1552;51.952;7.618;2022-08-23T15:30:34;4.03;;;2.40;;
3083;SDS011;1552;51.952;7.618;2022-08-23T15:33:00;5.93;;;2.35;;
3083;SDS011;1552;51.952;7.618;2022-08-23T15:35:28;3.70;;;2.60;;
3083;SDS011;1552;51.952;7.618;2022-08-23T15:37:55;5.00;;;2.60;;
3083;SDS011;1552;51.952;7.618;2022-08-23T15:40:22;5.93;;;2.50;;
3083;SDS011;1552;51.952;7.618;2022-08-23T15:42:49;3.67;;;2.45;;
3083;SDS011;1552;51.952;7.618;2022-08-23T15:45:15;3.50;;;2.22;;